• Join FlightAware (Why Join?)
  • Login
  • US Flag 
01:42AM EDT


 

Airport Tracker/Info


-or-


 

Live Flight TrackerFlight Track Log ✈ AIE861 ✈ 13-May-2013 ✈ CYCH - CYUL

Flight Track Log - Related Links

Times and Time Zones

All times are in EDT time to prevent confusion due to time zone crossing. See the AIE861 flight status page for this flight to view local times or setup timezone preferences in your user account.

Time Position Orientation Groundspeed Altitude Reporting Facility
EDT Latitude Longitude Course Direction KTS MPH feet Rate Location/Type
07:26AM 46.9667 -65.5000 270° West 120 138 1,800  Level Moncton Center
07:27AM 46.9667 -65.5500 270° West 140 161 3,100 1,320 Climbing Moncton Center
07:28AM 46.9500 -65.6000 244° Southwest 140 161 4,500 1,440 Climbing Moncton Center
07:29AM 46.9500 -65.6667 270° West 140 161 6,000 1,380 Climbing Moncton Center
07:30AM 46.9333 -65.7167 244° Southwest 140 161 7,300 1,260 Climbing Moncton Center
07:31AM 46.9333 -65.7667 270° West 150 173 8,600 1,260 Climbing Moncton Center
07:32AM 46.9167 -65.8500 254° West 150 173 9,900 1,200 Climbing Moncton Center
07:33AM 46.9000 -65.8833 234° Southwest 150 173 11,000 1,020 Climbing Moncton Center
07:34AM 46.9000 -65.9667 270° West 150 173 12,000 900 Climbing Moncton Center
07:35AM 46.8833 -66.0167 244° Southwest 150 173 12,800 840 Climbing Moncton Center
07:36AM 46.8833 -66.0667 270° West 150 173 13,700 840 Climbing Moncton Center
07:37AM 46.8667 -66.1333 250° West 150 173 14,500 840 Climbing Moncton Center
07:38AM 46.8667 -66.1833 270° West 150 173 15,400 720 Climbing Moncton Center
07:39AM 46.8500 -66.2500 250° West 150 173 16,000 300 Climbing Moncton Center
07:40AM 46.8333 -66.3333 254° West 170 196 16,000  Level Moncton Center
07:41AM 46.8333 -66.4000 270° West 190 219 16,000  Level Moncton Center
07:42AM 46.8167 -66.4833 254° West 200 230 16,000  Level Moncton Center
07:43AM 46.8000 -66.5667 254° West 200 230 16,000  Level Moncton Center
07:44AM 46.7667 -66.6500 240° Southwest 210 242 16,000  Level Moncton Center
07:45AM 46.7500 -66.7167 250° West 210 242 16,100  Climbing Moncton Center
07:46AM 46.7500 -66.8167 270° West 210 242 16,100  Level Moncton Center
07:47AM 46.7333 -66.8833 250° West 210 242 16,100  Level Moncton Center
07:48AM 46.7167 -66.9833 256° West 210 242 16,100  Level Moncton Center
07:49AM 46.7000 -67.0500 250° West 210 242 16,100  Level Moncton Center
07:50AM 46.6833 -67.1333 254° West 210 242 16,100  Level Moncton Center
07:51AM 46.6667 -67.2333 256° West 200 230 16,100  Level Moncton Center
07:52AM 46.6667 -67.3000 270° West 200 230 16,100  Level Moncton Center
07:53AM 46.6333 -67.3667 234° Southwest 200 230 16,100  Level Moncton Center
07:54AM 46.6167 -67.4667 256° West 210 242 16,100  Level Moncton Center
07:55AM 46.6000 -67.5333 250° West 200 230 16,100  Level Moncton Center
07:56AM 46.5833 -67.6167 254° West 200 230 16,100 -60 Level Moncton Center
07:57AM 46.5947 -67.6725 287° West 208 239 16,000 -60 Descending Boston Center
07:58AM 46.5811 -67.7492 256° West 208 239 16,000  Level Boston Center
07:59AM 46.5633 -67.8231 251° West 208 239 16,100  Climbing Boston Center
08:00AM 46.5497 -67.8997 256° West 208 239 16,100  Level Boston Center
08:01AM 46.5339 -67.9764 253° West 208 239 16,100  Level Boston Center
08:02AM 46.5181 -68.0531 253° West 208 239 16,100  Level Boston Center
08:03AM 46.5042 -68.1297 255° West 208 239 16,100  Level Boston Center
08:04AM 46.4883 -68.2061 253° West 208 239 16,100  Level Boston Center
08:05AM 46.4719 -68.2797 252° West 208 239 16,100  Level Boston Center
08:06AM 46.4600 -68.3469 256° West 208 239 16,100  Level Boston Center
08:07AM 46.4458 -68.4233 255° West 208 239 16,100  Level Boston Center
08:08AM 46.4297 -68.4997 253° West 208 239 16,100  Level Boston Center
08:09AM 46.4156 -68.5731 254° West 208 239 16,100  Level Boston Center
08:10AM 46.4011 -68.6431 253° West 203 234 16,100  Level Boston Center
08:11AM 46.3847 -68.7194 253° West 203 234 16,100  Level Boston Center
08:11AM 46.3667 -68.7333 208° Southwest 200 230 16,100  Level Moncton Center
08:12AM 46.3683 -68.7928 272° West 203 234 16,100  Level Boston Center
08:13AM 46.3519 -68.8689 253° West 203 234 16,100  Level Boston Center
08:14AM 46.3375 -68.9422 254° West 203 234 16,100  Level Boston Center
08:15AM 46.3231 -69.0150 254° West 203 234 16,100  Level Boston Center
08:16AM 46.3064 -69.0911 252° West 203 234 16,100  Level Boston Center
08:17AM 46.2919 -69.1672 255° West 198 228 16,100  Level Boston Center
08:18AM 46.2772 -69.2403 254° West 198 228 16,100  Level Boston Center
08:19AM 46.2628 -69.3131 254° West 193 222 16,100  Level Boston Center
08:20AM 46.2458 -69.3889 252° West 193 222 16,100  Level Boston Center
08:21AM 46.2269 -69.4650 250° West 193 222 16,100  Level Boston Center
08:22AM 46.2122 -69.5408 254° West 198 228 16,100  Level Boston Center
08:23AM 46.1953 -69.6136 251° West 198 228 16,100 -60 Level Boston Center
08:24AM 46.1786 -69.6922 253° West 203 234 16,000 -120 Descending Boston Center
08:25AM 46.1614 -69.7681 252° West 203 234 15,900 -60 Descending Boston Center
08:26AM 46.1464 -69.8436 254° West 203 234 15,900  Level Boston Center
08:27AM 46.1294 -69.9164 251° West 203 234 15,900  Level Boston Center
08:28AM 46.1122 -69.9947 252° West 203 234 15,900  Level Boston Center
08:29AM 46.0950 -70.0644 250° West 203 234 15,900  Level Boston Center
08:30AM 46.0819 -70.1428 257° West 203 234 15,900  Level Boston Center
08:30AM 46.0667 -70.1667 227° Southwest 200 230 15,900 -120 Level Moncton Center
08:31AM 46.0500 -70.1833 215° Southwest 190 219 15,800 -120 Descending Montreal Center
08:32AM 46.0500 -70.2667 270° West 190 219 15,800  Level Montreal Center
08:33AM 46.0333 -70.3333 250° West 190 219 15,900 60 Climbing Montreal Center
08:33AM 46.0167 -70.4000 250° West 190 219 15,900  Level Moncton Center
08:34AM 46.0000 -70.4167 215° Southwest 190 219 15,900  Level Montreal Center
08:35AM 45.9833 -70.4833 250° West 190 219 15,900  Level Montreal Center
08:36AM 45.9833 -70.5667 270° West 200 230 15,900  Level Montreal Center
08:37AM 45.9667 -70.6333 250° West 190 219 15,900  Level Montreal Center
08:38AM 45.9333 -70.7167 240° Southwest 190 219 15,900  Level Montreal Center
08:39AM 45.9167 -70.7833 250° West 190 219 15,900  Level Montreal Center
08:40AM 45.9000 -70.8667 254° West 200 230 15,900  Level Montreal Center
08:41AM 45.9167 -70.9333 290° West 200 230 15,900  Level Montreal Center
08:42AM 45.9000 -71.0000 250° West 200 230 15,900  Level Montreal Center
08:43AM 45.8833 -71.1000 257° West 200 230 16,000  Climbing Montreal Center
08:44AM 45.8833 -71.1667 270° West 200 230 15,900 -60 Descending Montreal Center
08:45AM 45.8667 -71.2667 257° West 200 230 15,900  Level Montreal Center
08:46AM 45.8833 -71.3500 286° West 200 230 15,900  Level Montreal Center
08:47AM 45.8667 -71.4167 250° West 210 242 15,900  Level Montreal Center
08:48AM 45.8500 -71.5167 257° West 200 230 15,900  Level Montreal Center
08:49AM 45.8500 -71.5833 270° West 200 230 15,900  Level Montreal Center
08:50AM 45.8333 -71.6667 254° West 210 242 15,900  Level Montreal Center
08:51AM 45.8333 -71.7500 270° West 210 242 15,900  Level Montreal Center
08:52AM 45.8333 -71.8333 270° West 210 242 15,900  Level Montreal Center
08:53AM 45.8167 -71.9333 257° West 210 242 15,900  Level Montreal Center
08:54AM 45.8000 -72.0000 250° West 210 242 15,900  Level Montreal Center
08:55AM 45.8000 -72.1000 270° West 210 242 15,900  Level Montreal Center
08:56AM 45.8000 -72.1667 270° West 220 253 15,900  Level Montreal Center
08:57AM 45.7833 -72.2667 257° West 220 253 15,900  Level Montreal Center
08:58AM 45.7833 -72.3333 270° West 220 253 16,000  Climbing Montreal Center
08:59AM 45.7667 -72.4333 257° West 220 253 16,000  Level Montreal Center
09:00AM 45.7500 -72.5000 250° West 220 253 16,000  Level Montreal Center
09:01AM 45.7500 -72.6000 270° West 220 253 16,000  Level Montreal Center
09:02AM 45.7500 -72.7000 270° West 220 253 16,000 -180 Level Montreal Center
09:03AM 45.7333 -72.7667 250° West 220 253 15,700 -1,020 Descending Montreal Center
09:04AM 45.7333 -72.8667 270° West 240 276 14,000 -1,680 Descending Montreal Center
09:05AM 45.7167 -72.9667 257° West 240 276 12,400 -1,620 Descending Montreal Center
09:06AM 45.7000 -73.0667 257° West 230 265 10,800 -1,440 Descending Montreal Center
09:07AM 45.6833 -73.1333 250° West 220 253 9,600 -1,200 Descending Montreal Center
09:08AM 45.6667 -73.2333 257° West 210 242 8,400 -1,200 Descending Montreal Center
09:09AM 45.6667 -73.3000 270° West 200 230 7,200 -1,200 Descending Montreal Center
09:10AM 45.6500 -73.3833 254° West 200 230 6,100 -1,200 Descending Montreal Center
09:11AM 45.6500 -73.4500 270° West 200 230 4,800 -1,200 Descending Montreal Center
09:12AM 45.6167 -73.5167 234° Southwest 210 242 3,700 -900 Descending Montreal Center
09:13AM 45.5833 -73.6000 240° Southwest 210 242 3,000 -900 Descending Montreal Center
09:14AM 45.5333 -73.6500 215° Southwest 180 207 2,000 -960 Descending Montreal Center
09:15AM 45.5000 -73.6667 199° South 150 173 1,100 -780 Descending Montreal Center
09:16AM 45.4833 -73.7167 245° Southwest 110 127 500 -540 Descending Montreal Center
09:17AM 45.4667 -73.7167 180° South 60 69 100 -420 Descending Montreal Center